Time;durP1;ratioP1;P1;durP2;ratioP2;P2;SDS_P1;SDS_P2;PMS_P1;PMS_P2;Temp;Humidity;BMP_temperature;BMP_pressure;BME280_temperature;BME280_humidity;BME280_pressure;Samples;Min_cycle;Max_cycle;Signal;HPM_P1;HPM_P2
2023/01/25 00:02:13;;;;;;;9.10;6.38;;;;;;;0.68;75.75;147496.28;5076645;28;20224;-66
2023/01/25 00:04:38;;;;;;;10.45;6.80;;;;;;;0.69;75.36;147500.09;5073490;28;20087;-66
2023/01/25 00:07:04;;;;;;;8.73;6.93;;;;;;;0.72;75.61;147505.22;5067089;28;20025;-64
2023/01/25 00:09:29;;;;;;;9.80;6.47;;;;;;;0.50;75.07;147451.81;5082898;28;20051;-65
2023/01/25 00:11:56;;;;;;;9.90;6.57;;;;;;;0.54;75.98;147461.94;5062791;28;20032;-67
2023/01/25 00:14:23;;;;;;;10.48;6.95;;;;;;;0.68;75.70;147496.28;5077239;28;20051;-66
2023/01/25 00:16:48;;;;;;;11.35;6.53;;;;;;;0.59;75.68;147474.69;5072229;28;20067;-66
2023/01/25 00:19:14;;;;;;;12.20;7.03;;;;;;;0.64;76.09;147486.13;5068113;28;20099;-65
2023/01/25 00:21:39;;;;;;;9.80;6.88;;;;;;;0.62;75.08;147481.06;5064818;28;20061;-64
2023/01/25 00:24:06;;;;;;;7.25;6.00;;;;;;;0.71;75.41;147502.66;5082616;28;20240;-65
2023/01/25 00:26:34;;;;;;;8.73;7.07;;;;;;;0.80;75.36;147526.84;5082492;28;20294;-66
2023/01/25 00:29:01;;;;;;;11.93;7.47;;;;;;;0.80;75.71;147526.84;5070532;28;20032;-66
2023/01/25 00:31:32;;;;;;;8.43;6.43;;;;;;;0.88;75.79;147545.91;5062158;28;20055;-67
2023/01/25 00:34:23;;;;;;;9.20;6.53;;;;;;;0.87;75.73;147543.41;5065445;28;20321;-64
2023/01/25 00:36:50;;;;;;;9.73;7.25;;;;;;;0.71;75.36;147502.66;5080600;28;20044;-65
2023/01/25 00:39:17;;;;;;;10.95;7.15;;;;;;;0.82;75.39;147531.91;5062025;28;20057;-65
2023/01/25 00:41:43;;;;;;;10.65;7.30;;;;;;;0.73;75.37;147509.03;5080194;28;20058;-65
2023/01/25 00:44:08;;;;;;;9.90;6.88;;;;;;;0.77;75.34;147517.91;5069002;28;20063;-65
2023/01/25 00:46:34;;;;;;;8.60;6.07;;;;;;;0.53;75.25;147459.44;5062649;28;20073;-65
2023/01/25 00:49:00;;;;;;;7.97;6.50;;;;;;;0.50;75.24;147451.81;5065494;28;20036;-65
2023/01/25 00:51:25;;;;;;;8.18;6.13;;;;;;;0.55;75.06;147463.25;5082561;28;20020;-64
2023/01/25 00:53:51;;;;;;;8.52;6.63;;;;;;;0.50;75.30;147453.06;5063360;28;20025;-65
2023/01/25 00:56:17;;;;;;;7.53;6.13;;;;;;;0.47;74.90;147445.44;5076095;28;20035;-64
2023/01/25 00:58:43;;;;;;;9.10;6.22;;;;;;;0.40;75.13;147426.34;5073149;28;20029;-65
2023/01/25 01:01:09;;;;;;;7.05;5.80;;;;;;;0.54;74.83;147460.69;5066324;28;20055;-66
2023/01/25 01:03:35;;;;;;;8.20;6.65;;;;;;;0.43;74.74;147435.25;5082254;28;20079;-66
2023/01/25 01:06:03;;;;;;;8.48;6.60;;;;;;;0.39;75.57;147423.81;5044296;28;20059;-66
2023/01/25 01:08:32;;;;;;;8.35;6.35;;;;;;;0.45;75.06;147440.31;5065850;28;20309;-66
2023/01/25 01:11:00;;;;;;;7.97;6.53;;;;;;;0.43;75.12;147433.94;5076825;28;20039;-65
2023/01/25 01:13:26;;;;;;;7.85;6.15;;;;;;;0.46;74.91;147441.63;5079257;28;20109;-66
2023/01/25 01:15:51;;;;;;;9.63;6.78;;;;;;;0.36;75.77;147417.47;5065420;28;20055;-66
2023/01/25 01:18:17;;;;;;;8.00;6.10;;;;;;;0.31;75.44;147404.72;5065879;28;20033;-65
2023/01/25 01:20:51;;;;;;;7.82;6.13;;;;;;;0.36;75.00;147416.16;5082851;28;20086;-66
2023/01/25 01:23:17;;;;;;;7.15;5.30;;;;;;;0.35;74.87;147414.91;5085585;28;20028;-66
2023/01/25 01:25:43;;;;;;;6.88;5.22;;;;;;;0.35;74.11;147414.91;5085509;28;20029;-66
2023/01/25 01:28:08;;;;;;;7.40;6.15;;;;;;;0.42;74.73;147431.44;5081014;28;20143;-65
2023/01/25 01:30:35;;;;;;;6.68;5.28;;;;;;;0.32;74.58;147407.28;5065500;28;20021;-66
2023/01/25 01:33:00;;;;;;;6.63;5.15;;;;;;;0.25;74.23;147389.47;5065344;28;20091;-65
2023/01/25 01:35:28;;;;;;;5.93;5.15;;;;;;;0.42;74.20;147432.69;5062135;28;20040;-65
2023/01/25 01:37:54;;;;;;;6.55;5.10;;;;;;;0.42;73.72;147432.69;5074716;28;20305;-65
2023/01/25 01:40:19;;;;;;;7.30;5.40;;;;;;;0.50;73.87;147451.81;5070421;28;20115;-65
2023/01/25 01:43:14;;;;;;;7.63;5.40;;;;;;;0.42;73.80;147432.69;5068654;28;20028;-66
2023/01/25 01:45:51;;;;;;;6.03;5.35;;;;;;;0.58;73.86;147472.13;5045281;28;20045;-65
2023/01/25 01:48:31;;;;;;;7.18;5.10;;;;;;;0.65;73.00;147488.69;5065008;28;20396;-65
2023/01/25 01:51:17;;;;;;;7.43;5.85;;;;;;;0.51;73.24;147454.31;5084023;28;20039;-66
2023/01/25 01:53:48;;;;;;;7.05;5.20;;;;;;;0.51;73.31;147455.63;5067152;28;20072;-66
2023/01/25 01:56:18;;;;;;;6.78;5.63;;;;;;;0.45;73.66;147440.31;5077926;28;20047;-67
2023/01/25 01:58:46;;;;;;;8.23;5.22;;;;;;;0.55;73.46;147464.50;5076196;28;20043;-66
2023/01/25 02:01:12;;;;;;;8.02;5.13;;;;;;;0.56;73.78;147467.06;5068781;28;20260;-66
2023/01/25 02:03:39;;;;;;;6.53;5.32;;;;;;;0.49;73.70;147450.50;5067175;28;20025;-66
2023/01/25 02:06:13;;;;;;;8.07;5.20;;;;;;;0.46;73.82;147441.63;5043189;28;20095;-66
2023/01/25 02:08:39;;;;;;;8.98;5.88;;;;;;;0.57;73.03;147469.63;5077406;28;20040;-65
2023/01/25 02:11:06;;;;;;;6.82;5.82;;;;;;;0.56;73.13;147465.81;5072809;28;20036;-66
2023/01/25 02:13:33;;;;;;;7.10;4.95;;;;;;;0.48;73.71;147447.94;5047423;28;20066;-66
2023/01/25 02:15:59;;;;;;;6.68;5.38;;;;;;;0.49;73.93;147450.50;5066195;28;20029;-65
2023/01/25 02:18:25;;;;;;;7.25;5.80;;;;;;;0.40;73.58;147427.63;5066625;28;20031;-65
2023/01/25 02:20:53;;;;;;;7.55;5.95;;;;;;;0.46;73.29;147441.63;5062885;28;20021;-65
2023/01/25 02:23:33;;;;;;;7.35;5.65;;;;;;;0.42;72.97;147432.69;5051110;28;20168;-67
2023/01/25 02:26:06;;;;;;;6.50;5.55;;;;;;;0.39;72.55;147423.81;5054763;28;20055;-66
2023/01/25 02:28:44;;;;;;;9.25;5.70;;;;;;;0.47;72.40;147444.13;5071226;28;20025;-66
2023/01/25 02:31:09;;;;;;;7.53;5.75;;;;;;;0.57;72.48;147469.63;5073278;28;20028;-65
2023/01/25 02:33:35;;;;;;;7.70;5.38;;;;;;;0.67;72.55;147493.75;5064154;28;20363;-65
2023/01/25 02:36:06;;;;;;;7.07;5.45;;;;;;;0.64;73.22;147487.41;5082359;28;20028;-65
2023/01/25 02:38:42;;;;;;;6.53;5.53;;;;;;;0.70;73.02;147501.41;5068713;28;20029;-66
2023/01/25 02:41:20;;;;;;;7.63;5.85;;;;;;;0.61;73.17;147478.50;5064133;28;20105;-65
2023/01/25 02:43:45;;;;;;;6.28;5.35;;;;;;;0.75;72.70;147512.84;5065473;28;20025;-65
2023/01/25 02:46:28;;;;;;;7.85;5.72;;;;;;;0.62;72.59;147482.31;5050458;28;20092;-65
2023/01/25 02:48:54;;;;;;;7.28;6.20;;;;;;;0.55;74.27;147463.25;5044079;28;20112;-64
2023/01/25 02:51:22;;;;;;;8.63;5.75;;;;;;;0.58;73.66;147470.88;5026152;28;20313;-66
2023/01/25 02:53:48;;;;;;;6.22;5.13;;;;;;;0.61;73.29;147479.75;5043474;28;20060;-65
2023/01/25 02:56:14;;;;;;;6.25;5.10;;;;;;;0.61;72.81;147478.50;5009630;28;20080;-65
2023/01/25 02:58:39;;;;;;;7.40;5.75;;;;;;;0.47;72.60;147445.44;5043952;28;20029;-65
2023/01/25 03:01:05;;;;;;;9.98;6.15;;;;;;;0.58;72.75;147470.88;5043655;28;20381;-66
2023/01/25 03:03:31;;;;;;;7.22;5.40;;;;;;;0.60;72.89;147477.25;5043899;28;20029;-65
2023/01/25 03:05:56;;;;;;;8.02;6.28;;;;;;;0.69;72.31;147498.84;5043595;28;20025;-66
2023/01/25 03:08:22;;;;;;;6.35;5.47;;;;;;;0.65;72.70;147488.69;5043851;28;20028;-66
2023/01/25 03:10:47;;;;;;;6.45;5.60;;;;;;;0.69;73.22;147498.84;5043525;28;20036;-66
2023/01/25 03:13:13;;;;;;;7.32;5.35;;;;;;;0.64;72.56;147487.41;5043408;28;20206;-66
2023/01/25 03:15:38;;;;;;;6.95;5.85;;;;;;;0.58;72.54;147470.88;5043448;28;20310;-66
2023/01/25 03:18:04;;;;;;;8.63;6.10;;;;;;;0.65;72.67;147488.69;5043158;28;20316;-65
2023/01/25 03:20:29;;;;;;;6.70;6.00;;;;;;;0.67;73.40;147493.75;5043225;28;20029;-65
2023/01/25 03:22:55;;;;;;;7.10;5.93;;;;;;;0.71;73.11;147503.91;5052850;28;20209;-66
2023/01/25 03:25:21;;;;;;;7.20;6.20;;;;;;;0.68;72.78;147496.28;5058500;28;20029;-65
2023/01/25 03:27:47;;;;;;;7.95;6.07;;;;;;;0.79;72.41;147523.03;5042876;28;20345;-65
2023/01/25 03:30:12;;;;;;;7.82;6.18;;;;;;;0.86;73.00;147540.84;5041583;28;20044;-64
2023/01/25 03:32:38;;;;;;;8.27;6.75;;;;;;;0.70;73.24;147501.41;5042630;28;20026;-66
2023/01/25 03:35:04;;;;;;;9.63;6.63;;;;;;;0.68;73.45;147497.59;5043178;28;20033;-65
2023/01/25 03:37:30;;;;;;;8.55;7.03;;;;;;;0.66;72.82;147492.50;5043180;28;20083;-65
2023/01/25 03:39:59;;;;;;;8.98;6.72;;;;;;;0.59;72.93;147473.44;5042895;28;20025;-65
2023/01/25 03:42:24;;;;;;;8.63;6.55;;;;;;;0.57;72.58;147468.31;5043180;28;20096;-65
2023/01/25 03:44:50;;;;;;;8.05;6.55;;;;;;;0.55;73.53;147463.25;5042883;28;20314;-65
2023/01/25 03:47:15;;;;;;;7.38;6.00;;;;;;;0.67;73.50;147495.03;5043111;28;20302;-66
2023/01/25 03:49:41;;;;;;;7.65;6.28;;;;;;;0.65;73.30;147489.94;5043227;28;20029;-66
2023/01/25 03:52:07;;;;;;;8.93;6.95;;;;;;;0.75;73.11;147514.09;5042626;28;20045;-65
2023/01/25 03:54:33;;;;;;;9.27;7.43;;;;;;;0.68;73.56;147497.59;5043016;28;20029;-65
2023/01/25 03:56:58;;;;;;;8.07;6.93;;;;;;;0.48;74.24;147447.94;5042437;28;20029;-65
2023/01/25 03:59:24;;;;;;;10.35;7.13;;;;;;;0.46;73.85;147441.63;5025405;28;20205;-66
2023/01/25 04:01:50;;;;;;;9.63;7.05;;;;;;;0.57;74.56;147468.31;5042765;28;20037;-67
2023/01/25 04:04:15;;;;;;;12.20;8.25;;;;;;;0.56;74.43;147465.81;5042825;28;20357;-67
2023/01/25 04:06:41;;;;;;;9.63;7.47;;;;;;;0.41;74.30;147430.16;5042939;28;20091;-67
2023/01/25 04:09:07;;;;;;;10.52;7.88;;;;;;;0.49;74.44;147450.50;5042773;28;20033;-67
2023/01/25 04:11:32;;;;;;;9.48;7.40;;;;;;;0.39;75.60;147425.06;5042598;28;20036;-67
2023/01/25 04:13:58;;;;;;;10.73;7.85;;;;;;;0.40;75.87;147426.34;5042758;28;20029;-68
2023/01/25 04:16:24;;;;;;;11.35;7.90;;;;;;;0.42;75.34;147432.69;5042773;28;20306;-66
2023/01/25 04:18:49;;;;;;;9.40;7.47;;;;;;;0.37;75.81;147418.72;5042898;28;20056;-67
2023/01/25 04:21:15;;;;;;;9.38;6.85;;;;;;;0.41;75.26;147430.16;5042643;28;20195;-67
2023/01/25 04:23:40;;;;;;;11.75;8.98;;;;;;;0.23;76.22;147385.66;5042552;28;20025;-67
2023/01/25 04:26:14;;;;;;;10.65;7.80;;;;;;;0.43;75.73;147435.25;5042430;28;20061;-68
2023/01/25 04:28:39;;;;;;;9.32;7.85;;;;;;;0.51;75.56;147455.63;5042821;28;20096;-67
2023/01/25 04:31:06;;;;;;;10.30;7.50;;;;;;;0.60;75.63;147475.94;5042089;28;20218;-66
2023/01/25 04:33:32;;;;;;;10.93;7.35;;;;;;;0.47;75.59;147444.13;5024739;28;20060;-66
2023/01/25 04:35:58;;;;;;;9.73;7.78;;;;;;;0.61;75.40;147479.75;5042210;28;20418;-66
2023/01/25 04:38:24;;;;;;;10.07;7.78;;;;;;;0.59;76.18;147473.44;5024995;28;20029;-65
2023/01/25 04:40:51;;;;;;;12.07;8.05;;;;;;;0.58;75.79;147470.88;5043861;28;20032;-66
2023/01/25 04:43:18;;;;;;;10.88;8.27;;;;;;;0.56;76.13;147467.06;5049143;28;20025;-66
2023/01/25 04:45:44;;;;;;;11.50;8.60;;;;;;;0.45;75.95;147439.06;5076313;28;20036;-69
2023/01/25 04:48:12;;;;;;;10.38;8.38;;;;;;;0.56;76.04;147465.81;5067047;28;20051;-67
2023/01/25 04:50:41;;;;;;;9.98;7.57;;;;;;;0.68;75.65;147497.59;5080318;28;20028;-66
2023/01/25 04:53:08;;;;;;;12.10;8.80;;;;;;;0.61;75.84;147478.50;5075140;28;20091;-67
2023/01/25 04:55:34;;;;;;;12.73;8.13;;;;;;;0.65;76.32;147489.94;5065787;28;20083;-66
2023/01/25 04:58:00;;;;;;;12.77;8.43;;;;;;;0.61;76.40;147479.75;5066551;28;20029;-67
2023/01/25 05:00:27;;;;;;;10.85;8.10;;;;;;;0.54;76.43;147461.94;5085896;28;20267;-67
2023/01/25 05:02:53;;;;;;;8.95;7.63;;;;;;;0.66;76.11;147492.50;5068842;28;20080;-68
2023/01/25 05:05:19;;;;;;;11.55;8.57;;;;;;;0.75;75.72;147512.84;5065704;28;20028;-67
2023/01/25 05:07:44;;;;;;;10.50;7.90;;;;;;;0.66;75.97;147491.22;5065151;28;20036;-68
2023/01/25 05:10:10;;;;;;;11.30;8.02;;;;;;;0.68;75.96;147497.59;5067594;28;20376;-67
2023/01/25 05:12:36;;;;;;;8.98;7.18;;;;;;;0.51;75.97;147454.31;5085287;28;20031;-66
2023/01/25 05:15:02;;;;;;;10.07;6.95;;;;;;;0.59;75.82;147474.69;5067482;28;20368;-67
2023/01/25 05:17:29;;;;;;;9.30;7.45;;;;;;;0.55;75.61;147464.50;5060606;28;20032;-67
2023/01/25 05:19:55;;;;;;;9.63;7.25;;;;;;;0.62;75.75;147482.31;5076785;28;20032;-67
2023/01/25 05:22:20;;;;;;;9.93;7.32;;;;;;;0.57;75.65;147468.31;5051558;28;20251;-68
2023/01/25 05:24:47;;;;;;;10.05;7.30;;;;;;;0.51;75.27;147454.31;5085549;28;20036;-68
2023/01/25 05:27:15;;;;;;;9.45;7.15;;;;;;;0.63;75.35;147483.59;5085646;28;20039;-67
2023/01/25 05:29:43;;;;;;;11.23;7.45;;;;;;;0.66;74.98;147491.22;5070421;28;20216;-66
2023/01/25 05:32:11;;;;;;;10.82;8.10;;;;;;;0.80;74.76;147525.59;5064537;28;20101;-67
2023/01/25 05:34:37;;;;;;;8.52;7.38;;;;;;;0.84;74.19;147537.03;5065334;28;20072;-67
2023/01/25 05:37:04;;;;;;;9.75;7.38;;;;;;;0.85;74.33;147539.53;5066536;28;20187;-68
2023/01/25 05:39:30;;;;;;;8.73;7.30;;;;;;;0.74;75.04;147511.59;5085297;28;20043;-67
2023/01/25 05:41:56;;;;;;;9.90;7.95;;;;;;;0.68;74.64;147497.59;5050379;28;20025;-69
2023/01/25 05:44:22;;;;;;;8.60;7.70;;;;;;;0.65;74.84;147488.69;5065515;28;20221;-67
2023/01/25 05:46:48;;;;;;;8.55;7.10;;;;;;;0.58;74.94;147470.88;5072043;28;20227;-68
2023/01/25 05:49:13;;;;;;;9.93;7.72;;;;;;;0.69;74.63;147498.84;5082458;28;20108;-67
2023/01/25 05:51:39;;;;;;;10.45;8.25;;;;;;;0.39;74.38;147425.06;5064872;28;20044;-68
2023/01/25 05:54:06;;;;;;;12.30;7.70;;;;;;;0.55;74.66;147463.25;5082520;28;20036;-66
2023/01/25 05:56:32;;;;;;;9.68;7.50;;;;;;;0.55;74.71;147463.25;5071412;28;20324;-66
2023/01/25 05:58:59;;;;;;;12.05;8.80;;;;;;;0.56;75.07;147465.81;5073475;28;20082;-67
2023/01/25 06:01:26;;;;;;;11.05;7.53;;;;;;;0.59;75.34;147474.69;5081220;28;20060;-69
2023/01/25 06:03:52;;;;;;;10.20;7.72;;;;;;;0.62;74.88;147481.06;5065053;28;20116;-67
2023/01/25 06:06:19;;;;;;;10.23;7.63;;;;;;;0.60;75.35;147475.94;5083924;28;20058;-68
2023/01/25 06:08:45;;;;;;;10.20;7.85;;;;;;;0.66;74.67;147492.50;5069568;28;20033;-68
2023/01/25 06:11:13;;;;;;;11.48;8.23;;;;;;;0.46;74.64;147442.88;5064337;28;20035;-68
2023/01/25 06:13:39;;;;;;;10.90;8.57;;;;;;;0.66;74.53;147491.22;5064514;28;20029;-68
2023/01/25 06:16:05;;;;;;;10.77;8.52;;;;;;;0.73;74.91;147509.03;5064190;28;20029;-67
2023/01/25 06:18:32;;;;;;;11.73;8.48;;;;;;;0.67;74.99;147495.03;5064648;28;20032;-69
2023/01/25 06:20:59;;;;;;;13.52;8.93;;;;;;;0.59;75.27;147473.44;5080381;28;20024;-69
2023/01/25 06:23:25;;;;;;;11.98;9.45;;;;;;;0.66;74.91;147491.22;5066782;28;20035;-68
2023/01/25 06:25:52;;;;;;;10.68;8.77;;;;;;;0.61;74.73;147478.50;5084242;28;20036;-69
2023/01/25 06:28:18;;;;;;;11.32;9.13;;;;;;;0.55;75.17;147463.25;5081715;28;20209;-72
2023/01/25 06:30:44;;;;;;;12.13;8.70;;;;;;;0.58;75.00;147470.88;5064408;28;20052;-69
2023/01/25 06:33:09;;;;;;;12.68;8.98;;;;;;;0.59;74.66;147474.69;5064116;28;20024;-68
2023/01/25 06:35:35;;;;;;;10.18;8.05;;;;;;;0.43;74.35;147435.25;5064035;28;20020;-68
2023/01/25 06:38:01;;;;;;;8.80;7.90;;;;;;;0.46;74.28;147441.63;5072751;28;20095;-68
2023/01/25 06:40:27;;;;;;;12.57;8.57;;;;;;;0.45;74.80;147439.06;5080233;28;20094;-69
2023/01/25 06:42:53;;;;;;;9.15;7.25;;;;;;;0.57;75.03;147469.63;5063822;28;20032;-69
2023/01/25 06:45:19;;;;;;;10.05;8.98;;;;;;;0.66;74.20;147492.50;5063622;28;20075;-66
2023/01/25 06:47:47;;;;;;;9.27;7.53;;;;;;;0.47;74.22;147445.44;5078778;28;20037;-68
2023/01/25 06:50:13;;;;;;;11.32;7.78;;;;;;;0.48;74.60;147447.94;5073498;28;20060;-67
2023/01/25 06:52:39;;;;;;;8.65;7.47;;;;;;;0.54;74.71;147460.69;5068896;28;20020;-66
2023/01/25 06:55:07;;;;;;;9.35;6.95;;;;;;;0.62;74.53;147482.31;5082787;28;20068;-67
2023/01/25 06:57:33;;;;;;;9.90;8.10;;;;;;;0.55;74.72;147464.50;5064094;28;20033;-67
2023/01/25 06:59:59;;;;;;;10.88;7.75;;;;;;;0.35;74.38;147414.91;5079677;28;20060;-68
2023/01/25 07:02:25;;;;;;;8.82;7.80;;;;;;;0.38;75.84;147422.53;5045472;28;20041;-67
2023/01/25 07:04:50;;;;;;;11.10;7.85;;;;;;;0.42;75.18;147431.44;5069508;28;20029;-68
2023/01/25 07:07:16;;;;;;;11.50;7.97;;;;;;;0.34;74.85;147412.34;5081219;28;20028;-67
2023/01/25 07:09:41;;;;;;;10.10;7.32;;;;;;;0.46;74.49;147441.63;5062876;28;20033;-66
2023/01/25 07:12:07;;;;;;;9.82;8.02;;;;;;;0.36;75.98;147416.16;5080786;28;20021;-67
2023/01/25 07:14:33;;;;;;;8.60;6.75;;;;;;;0.42;75.45;147431.44;5070690;28;20028;-68
2023/01/25 07:16:59;;;;;;;9.48;7.40;;;;;;;0.43;74.93;147435.25;5070941;28;20043;-67
2023/01/25 07:19:24;;;;;;;8.65;6.80;;;;;;;0.44;74.28;147437.81;5079591;28;20039;-68
2023/01/25 07:21:50;;;;;;;8.68;6.75;;;;;;;0.47;75.02;147445.44;5083333;28;20217;-68
2023/01/25 07:24:18;;;;;;;10.10;6.90;;;;;;;0.51;74.24;147454.31;5083214;28;20094;-67
2023/01/25 07:26:45;;;;;;;9.00;7.13;;;;;;;0.30;74.51;147402.16;5065531;28;20030;-68
2023/01/25 07:29:14;;;;;;;9.45;7.18;;;;;;;0.36;74.24;147416.16;5073491;28;20052;-69
2023/01/25 07:31:43;;;;;;;7.97;6.78;;;;;;;0.42;74.45;147432.69;5062676;28;20074;-68
2023/01/25 07:34:12;;;;;;;8.82;6.45;;;;;;;0.65;74.66;147489.94;5063906;28;20060;-68
2023/01/25 07:36:39;;;;;;;8.93;7.18;;;;;;;0.55;73.97;147463.25;5082595;28;20024;-68
2023/01/25 07:39:05;;;;;;;9.30;7.53;;;;;;;0.46;74.67;147442.88;5065925;28;20045;-67
2023/01/25 07:41:33;;;;;;;9.57;7.43;;;;;;;0.51;74.51;147455.63;5053867;28;20071;-68
2023/01/25 07:43:59;;;;;;;9.45;6.65;;;;;;;0.40;74.43;147427.63;5062983;28;20035;-69
2023/01/25 07:46:25;;;;;;;8.52;6.65;;;;;;;0.49;74.27;147450.50;5065988;28;20049;-67
2023/01/25 07:48:51;;;;;;;8.73;6.90;;;;;;;0.59;74.90;147474.69;5065312;28;20328;-67
2023/01/25 07:51:21;;;;;;;8.15;6.50;;;;;;;0.57;73.95;147468.31;5063730;28;20365;-70
2023/01/25 07:54:01;;;;;;;9.77;6.95;;;;;;;0.53;74.18;147459.44;5062437;28;20209;-68
2023/01/25 07:56:32;;;;;;;10.73;6.88;;;;;;;0.67;74.47;147495.03;5062164;28;20049;-68
2023/01/25 07:58:59;;;;;;;8.60;6.32;;;;;;;0.85;73.51;147538.28;5061117;28;20021;-68
2023/01/25 08:01:26;;;;;;;9.18;7.45;;;;;;;0.82;73.83;147530.66;5073909;28;20288;-68
2023/01/25 08:03:55;;;;;;;8.48;7.03;;;;;;;0.79;73.46;147524.28;5062923;28;20088;-67
2023/01/25 08:06:29;;;;;;;10.35;7.55;;;;;;;0.64;73.83;147487.41;5081602;28;20032;-67
2023/01/25 08:08:57;;;;;;;8.68;6.75;;;;;;;0.64;73.67;147487.41;5044482;28;20044;-67
2023/01/25 08:11:25;;;;;;;9.18;6.70;;;;;;;0.67;74.40;147495.03;5063347;28;20028;-67
2023/01/25 08:13:51;;;;;;;8.05;7.25;;;;;;;0.72;73.96;147505.22;5069023;28;20028;-67
2023/01/25 08:16:23;;;;;;;8.63;7.05;;;;;;;0.69;74.46;147500.09;5082992;28;20035;-67
2023/01/25 08:18:52;;;;;;;9.23;7.43;;;;;;;0.85;73.97;147539.53;5062495;28;20032;-67
2023/01/25 08:21:18;;;;;;;9.75;7.38;;;;;;;0.84;73.71;147537.03;5084630;28;20092;-66
2023/01/25 08:23:44;;;;;;;9.38;7.00;;;;;;;0.96;73.83;147565.03;5086794;28;20039;-69
2023/01/25 08:26:11;;;;;;;11.13;7.63;;;;;;;0.98;73.79;147571.41;5077383;28;20100;-68
2023/01/25 08:28:37;;;;;;;8.02;7.13;;;;;;;0.92;74.14;147554.84;5052903;28;20028;-69
2023/01/25 08:31:11;;;;;;;8.18;6.60;;;;;;;0.74;74.16;147511.59;5076415;28;20185;-68
2023/01/25 08:33:38;;;;;;;11.98;7.07;;;;;;;0.69;74.32;147500.09;5046638;28;20045;-68
2023/01/25 08:36:04;;;;;;;7.80;7.00;;;;;;;0.57;74.94;147469.63;5063020;28;20039;-68
2023/01/25 08:38:31;;;;;;;12.23;7.53;;;;;;;0.75;74.71;147514.09;5066505;28;20220;-68
2023/01/25 08:41:04;;;;;;;8.35;7.07;;;;;;;0.63;74.08;147484.88;5073241;28;20059;-67
2023/01/25 08:43:30;;;;;;;8.90;6.80;;;;;;;0.73;74.58;147507.72;5081985;28;20087;-68
2023/01/25 08:45:56;;;;;;;7.55;6.43;;;;;;;0.78;74.33;147521.72;5066093;28;20045;-68
2023/01/25 08:48:22;;;;;;;9.00;7.00;;;;;;;0.92;74.26;147554.84;5084505;28;20048;-68
2023/01/25 08:50:48;;;;;;;10.10;7.35;;;;;;;1.04;73.84;147585.34;5072409;28;20055;-70
2023/01/25 08:53:13;;;;;;;9.77;6.20;;;;;;;0.86;74.25;147542.09;5074559;28;20032;-69
2023/01/25 08:55:41;;;;;;;8.75;6.70;;;;;;;0.99;73.82;147572.66;5085174;28;20088;-68
2023/01/25 08:58:09;;;;;;;8.15;6.50;;;;;;;1.03;74.04;147582.84;5085624;28;20044;-67
2023/01/25 09:00:37;;;;;;;8.02;6.30;;;;;;;0.96;73.57;147566.28;5065665;28;20048;-69
2023/01/25 09:03:03;;;;;;;10.73;6.28;;;;;;;1.09;73.47;147596.84;5046547;28;20025;-69
2023/01/25 09:05:28;;;;;;;11.45;7.07;;;;;;;1.07;74.03;147591.72;5074419;28;20083;-68
2023/01/25 09:07:54;;;;;;;10.43;6.32;;;;;;;1.17;73.67;147617.22;5071924;28;20025;-69
2023/01/25 09:10:19;;;;;;;7.05;5.75;;;;;;;1.12;73.60;147605.72;5083455;28;20051;-70
2023/01/25 09:12:45;;;;;;;10.40;7.07;;;;;;;1.20;73.87;147626.09;5064118;28;20017;-69
2023/01/25 09:15:10;;;;;;;10.93;7.20;;;;;;;1.20;73.33;147624.84;5082514;28;20052;-69
2023/01/25 09:17:37;;;;;;;10.65;7.35;;;;;;;1.23;73.78;147631.16;5073180;28;20039;-69
2023/01/25 09:20:06;;;;;;;12.00;7.97;;;;;;;0.96;73.58;147565.03;5073455;28;20025;-69
2023/01/25 09:22:31;;;;;;;11.73;7.88;;;;;;;1.03;74.15;147582.84;5085529;28;20053;-68
2023/01/25 09:24:57;;;;;;;12.68;7.75;;;;;;;0.88;74.66;147545.91;5085535;28;20066;-68
2023/01/25 09:27:23;;;;;;;8.65;7.50;;;;;;;0.96;74.73;147565.03;5084259;28;20028;-68
2023/01/25 09:29:48;;;;;;;12.40;8.30;;;;;;;0.79;75.25;147524.28;5071724;28;20052;-68
2023/01/25 09:32:14;;;;;;;10.15;8.77;;;;;;;0.72;74.94;147506.47;5074017;28;20129;-69
2023/01/25 09:34:39;;;;;;;11.60;8.70;;;;;;;0.81;75.54;147528.09;5081558;28;20036;-69
2023/01/25 09:37:05;;;;;;;12.90;7.95;;;;;;;0.99;75.68;147572.66;5065364;28;20025;-69
2023/01/25 09:39:31;;;;;;;9.52;7.95;;;;;;;1.02;75.31;147581.53;5084780;28;20100;-70
2023/01/25 09:41:56;;;;;;;10.75;7.95;;;;;;;1.10;75.52;147599.34;5070979;28;20091;-69
2023/01/25 09:44:40;;;;;;;11.52;8.82;;;;;;;1.10;75.56;147600.66;5077438;28;20029;-69
2023/01/25 09:47:43;;;;;;;13.75;9.57;;;;;;;1.00;74.72;147575.22;5075058;28;20048;-68
2023/01/25 09:50:35;;;;;;;10.93;8.15;;;;;;;0.84;75.48;147535.72;5077230;28;20087;-71
2023/01/25 09:53:13;;;;;;;10.20;7.90;;;;;;;0.83;75.66;147534.47;5054095;28;20024;-67
2023/01/25 09:55:39;;;;;;;13.40;8.20;;;;;;;0.76;75.45;147516.66;5081624;28;20099;-70
2023/01/25 09:58:13;;;;;;;11.65;7.88;;;;;;;0.61;75.96;147478.50;5065337;28;20210;-70
2023/01/25 10:00:46;;;;;;;10.73;8.10;;;;;;;0.70;75.73;147501.41;5045111;28;20028;-70
2023/01/25 10:03:37;;;;;;;11.05;8.20;;;;;;;0.72;75.82;147506.47;5061675;28;20064;-68
2023/01/25 10:06:02;;;;;;;11.02;8.07;;;;;;;0.94;76.18;147559.91;5047182;28;20203;-70
2023/01/25 10:08:31;;;;;;;9.27;8.25;;;;;;;0.89;76.46;147547.22;5046917;28;20032;-69
2023/01/25 10:11:16;;;;;;;10.77;8.20;;;;;;;0.89;76.02;147548.47;5070471;28;20028;-68
2023/01/25 10:13:43;;;;;;;10.05;8.82;;;;;;;0.86;76.76;147540.84;5081051;28;20222;-70
2023/01/25 10:16:36;;;;;;;11.55;8.18;;;;;;;0.89;75.95;147548.47;5063763;28;20078;-69
2023/01/25 10:19:12;;;;;;;9.40;6.90;;;;;;;0.88;76.38;147544.66;5044549;28;20033;-69
2023/01/25 10:21:49;;;;;;;10.10;7.32;;;;;;;0.88;75.74;147544.66;5026922;28;20045;-70
2023/01/25 10:24:52;;;;;;;9.75;7.88;;;;;;;0.88;75.28;147544.66;5077766;28;20068;-68
2023/01/25 10:27:55;;;;;;;8.93;7.18;;;;;;;0.93;75.02;147557.41;5083388;28;20078;-68
2023/01/25 10:30:50;;;;;;;8.35;6.90;;;;;;;0.90;76.09;147549.72;5066042;28;20029;-67
2023/01/25 10:33:18;;;;;;;7.22;6.22;;;;;;;0.68;74.87;147497.59;5080130;28;20036;-68
2023/01/25 10:35:47;;;;;;;7.97;6.82;;;;;;;0.72;75.42;147506.47;5053966;28;20024;-69
2023/01/25 10:38:41;;;;;;;7.88;6.72;;;;;;;0.65;75.70;147489.94;5064062;28;20021;-68
2023/01/25 10:41:14;;;;;;;9.63;7.50;;;;;;;0.67;75.69;147495.03;5063427;28;20029;-68
2023/01/25 10:43:40;;;;;;;9.18;7.50;;;;;;;0.85;75.67;147539.53;5061112;28;20076;-68
2023/01/25 10:46:31;;;;;;;9.60;7.53;;;;;;;0.85;75.31;147538.28;5063512;28;20206;-69
2023/01/25 10:49:13;;;;;;;11.57;8.48;;;;;;;0.58;76.22;147470.88;5045243;28;20037;-68
2023/01/25 10:51:38;;;;;;;9.77;7.65;;;;;;;0.77;76.19;147517.91;5063832;28;20029;-69
2023/01/25 10:54:05;;;;;;;8.85;7.90;;;;;;;0.81;75.79;147529.41;5062821;28;20214;-69
2023/01/25 10:56:37;;;;;;;9.95;8.13;;;;;;;0.51;76.49;147455.63;5063783;28;20033;-66
2023/01/25 10:59:34;;;;;;;9.93;8.30;;;;;;;0.61;77.03;147479.75;5063884;28;20023;-68
2023/01/25 11:02:34;;;;;;;10.50;8.48;;;;;;;0.48;77.22;147447.94;5054964;28;20045;-68
2023/01/25 11:05:17;;;;;;;8.85;7.93;;;;;;;0.60;76.75;147475.94;5063554;28;20186;-68
2023/01/25 11:07:46;;;;;;;10.38;8.98;;;;;;;0.64;76.76;147486.13;5063033;28;20043;-68
2023/01/25 11:10:42;;;;;;;10.63;8.35;;;;;;;0.71;76.95;147503.91;5061972;28;20031;-68
2023/01/25 11:13:13;;;;;;;11.55;9.18;;;;;;;0.56;77.42;147467.06;5058639;28;20109;-68
2023/01/25 11:15:40;;;;;;;10.00;8.40;;;;;;;0.55;78.07;147463.25;5083217;28;20036;-68
2023/01/25 11:18:32;;;;;;;11.10;8.70;;;;;;;0.59;76.95;147473.44;5068017;28;20323;-67
2023/01/25 11:21:10;;;;;;;;;;;;;;;0.63;76.71;147484.88;5063432;28;20029;-67
2023/01/25 11:23:35;;;;;;;11.05;8.40;;;;;;;0.67;76.62;147493.75;5062359;28;20193;-68
2023/01/25 11:26:16;;;;;;;10.38;8.23;;;;;;;0.68;76.48;147496.28;5044965;28;20032;-67
2023/01/25 11:28:43;;;;;;;10.07;8.07;;;;;;;0.72;77.02;147505.22;5048413;28;20032;-67
2023/01/25 11:31:14;;;;;;;10.13;8.05;;;;;;;0.68;76.46;147496.28;5054428;28;20043;-68
2023/01/25 11:33:41;;;;;;;10.82;7.95;;;;;;;0.63;76.21;147484.88;5045048;28;20020;-67
2023/01/25 11:36:14;;;;;;;11.25;8.75;;;;;;;0.67;76.20;147493.75;5077452;28;20021;-67
2023/01/25 11:39:08;;;;;;;16.73;9.02;;;;;;;0.50;75.87;147453.06;5071822;28;20028;-67
2023/01/25 11:41:52;;;;;;;11.70;8.32;;;;;;;0.54;75.98;147461.94;5062292;28;20232;-68